Bd-6 — AEIN — position and weather

sailwx.info

Track history (hours):
 
Tides and Currents Weather Stations Pressure Air Temp Water Temp Dewpoint Dewpoint Depression Visibility Wind Speed Wind Dir Waves Ship Positions

Bd-6

Last reported at 2017-Dec-11 17:48 UTC. Time now 2018-Jan-22 20:31 UTC.
Position N 38°52' W 076°59'.
Warning: this ship's position is 42 days out of date.

Length 12 m.

Type: Military. MMSI: 369970466.

Date/timePositionNaut miles runAvg speedWind from/ knotsBaromVisibWave heightAir tempDewpointWater temp
2017-Dec-11 17:48N 38°52' W 076°59'0 0.1
2017-Dec-11 17:28N 38°52' W 076°59'2 4.7
2017-Dec-11 17:00N 38°52' W 077°02'2 2.3
2017-Dec-11 15:57N 38°54' W 077°04'3 6.3
2017-Dec-11 15:29N 38°52' W 077°02'3 6.9
2017-Dec-11 15:00N 38°49' W 077°02'1 0.5
2017-Dec-11 12:46N 38°48' W 077°02'2 6.8
2017-Dec-11 12:31N 38°49' W 077°02'3 6.6
2017-Dec-11 12:00N 38°52' W 076°60'  
2017-Dec-07 20:58N 38°52' W 076°59'2 3.4
2017-Dec-07 20:29N 38°51' W 077°01'3 5.9
2017-Dec-07 20:00N 38°54' W 077°04'1 2.3
2017-Dec-07 19:29N 38°53' W 077°03'2 3.9
2017-Dec-07 19:00N 38°52' W 077°01'1 1.9
2017-Dec-07 18:30N 38°52' W 076°60'2 4.6
2017-Dec-07 17:58N 38°50' W 077°01'  
Track history (hours):
 
Tides and Currents Weather Stations Pressure Air Temp Water Temp Dewpoint Dewpoint Depression Visibility Wind Speed Wind Dir Waves Ship Positions

Bd-6

Last reported at 2017-Dec-11 17:48 UTC. Time now 2018-Jan-22 20:31 UTC.
Position N 38°52' W 076°59'.
Warning: this ship's position is 42 days out of date.

Length 12 m.

Type: Military. MMSI: 369970466.

Date/timePositionNaut miles runAvg speedWind from/ knotsBaromVisibWave heightAir tempDewpointWater temp
2017-Dec-11 17:48N 38°52' W 076°59'0 0.1
2017-Dec-11 17:28N 38°52' W 076°59'2 4.7
2017-Dec-11 17:00N 38°52' W 077°02'2 2.3
2017-Dec-11 15:57N 38°54' W 077°04'3 6.3
2017-Dec-11 15:29N 38°52' W 077°02'3 6.9
2017-Dec-11 15:00N 38°49' W 077°02'1 0.5
2017-Dec-11 12:46N 38°48' W 077°02'2 6.8
2017-Dec-11 12:31N 38°49' W 077°02'3 6.6
2017-Dec-11 12:00N 38°52' W 076°60'  
2017-Dec-07 20:58N 38°52' W 076°59'2 3.4
2017-Dec-07 20:29N 38°51' W 077°01'3 5.9
2017-Dec-07 20:00N 38°54' W 077°04'1 2.3
2017-Dec-07 19:29N 38°53' W 077°03'2 3.9
2017-Dec-07 19:00N 38°52' W 077°01'1 1.9
2017-Dec-07 18:30N 38°52' W 076°60'2 4.6
2017-Dec-07 17:58N 38°50' W 077°01'  

Dump ship's entire track history